Etusivu
METAR-TAF:

METAR-TAF

Lentoasemat :

Tabarka, Tunisia

Leveyspiiri: 36-57N, Pituuspiiri: 008-45E, korkeus merenpinnasta: 20 m

Tämänhetkinen sää

Tämä raportti tehtiin 27 minuuttia sitten, kello 12.00 UTC
Tuuli 19 kn idästä
Lämpötila 18°C
Kosteus 73%
Ilmanpaine 1014 hPa
Näkyvyys 10 km tai enemmän
Hajanaisia pilviä 2000 ft:n korkeudessa
Hajanaisia pilviä 3300 ft:n korkeudessa

METAR: DTKA 011200Z 08019KT 9999 SCT020 SCT033 18/13 Q1014 NOSIG

Aika: 13:27 (12:27 UTC)

Sääennuste

Tämä raportti tehtiin 3 tuntia ja 27 minuuttia sitten, kello 09.00 UTC
Ennuste voimassa 01. päivästä klo 10 UTC - 01. päivään klo 19 UTC
Tuuli 15 kn idästä
Näkyvyys 10 km tai enemmän
Hajanaisia pilviä 2000 ft:n korkeudessa
Hajanaisia pilviä 3300 ft:n korkeudessa

TAF: DTKA 010900Z 0110/0119 09015KT 9999 SCT020 SCT033

Säähavainnot ja -ennusteet yli 4000 lentoasemalta (METAR- ja TAF-raportit).

Käytössä olevat sääasemat on merkitty karttaan keltaisilla ja punaisilla pisteillä.

Aseta hiiri pisteen päälle nähdäksesi sääaseman nimen.

Klikkaa sitten nähdäksesi säähavainnot ja -ennusteet.

Kartan vaihtaminen: klikkaa mustalla rastilla varustettuja vihreitä pisteitä, niin voit zoomata sisään; viivalla varustettua vihreää pistettä, niin voit zoomata ulos tai vihreitä nuolia, niin pääset viereisille kartoille.


METAR-TAF: